Airfield :
LOGIN :

Register | Disclaimer

   EN    FR    IT 

 










Legend :    VFR   Marginal VFR   IFR   Intensive IFR   Very Intensive IFR
Visi :
Ceiling :
>= 8 km
>= 3000ft
5 to 8 km
1000 to 3000 ft
1500m to 5 km
500 to 1000 ft
800 to 1500m
200 to 500 ft
< 800m
< 200 ft
Symbols :   Thunderstorms  Fog  Heavy snow  Heavy precipitations  Wind > 20 kt
SIGMETs :     Misc.  Thunderstorms  Icing  Turbulence  Mountain Waves  Volcanic Ashes







- Airport Elevation : -11 ft
- IATA code : AMS


EHAM - Amsterdam Schiphol

CURRENT METAR :
  • 191425Z 22020KT 190V250 9999 FEW035 SCT042 22/14 Q1014 NOSIG

EXPIRED METARs :
  • 191355Z 21021KT 9999 FEW035 22/14 Q1014 NOSIG
  • 191325Z 21020KT 180V240 9999 FEW038 22/13 Q1014 NOSIG
  • 191255Z 21020KT 9999 FEW038 23/14 Q1014 NOSIG
  • 191225Z 21022KT 9999 FEW035 23/14 Q1014 NOSIG
  • 191155Z 21018KT 170V230 9999 FEW033 22/14 Q1014 NOSIG

TAF TAF EHAM
Valid from the 19 at 12:00 until the 20 at 18:00 UTC


191102Z 1912/2018 23016G26KT 9999 SCT025
BECMG 2000/2003 19010KT
PROB40
TEMPO 2003/2009 BKN015
BECMG 2007/2010 22015G25KT
BECMG 2015/2018 20008KT
No reported NOTAMs for that airfield.



MET'MAP, your aeronautical weather chart ! - Copyright ORBIFLY December 2007 - Disclaimer

ORBIFLY MET'MAP TEAM :

Programming & Development : Alexandra Zaïnal
Concept & Development : Baudouin d'Aumeries
Co-Development & Prog : Marc-Olivier Méhu
Technical & hardware support : Manuel Goepfert

Contact : metmap@orbifly.com




SOURCES & CREDITS :

   NOAA